sensor_id;sensor_type;location;lat;lon;timestamp;temperature;humidity
27647;DHT22;42229;51.230;6.240;2024-03-08T00:01:23;5.50;99.90
27647;DHT22;42229;51.230;6.240;2024-03-08T00:03:50;5.40;99.90
27647;DHT22;42229;51.230;6.240;2024-03-08T00:06:17;5.40;99.90
27647;DHT22;42229;51.230;6.240;2024-03-08T00:08:43;5.40;99.90
27647;DHT22;42229;51.230;6.240;2024-03-08T00:11:09;5.40;99.90
27647;DHT22;42229;51.230;6.240;2024-03-08T00:13:35;5.30;99.90
27647;DHT22;42229;51.230;6.240;2024-03-08T00:16:02;5.30;99.90
27647;DHT22;42229;51.230;6.240;2024-03-08T00:18:28;5.30;99.90
27647;DHT22;42229;51.230;6.240;2024-03-08T00:20:55;5.30;99.90
27647;DHT22;42229;51.230;6.240;2024-03-08T00:23:22;5.20;99.90
27647;DHT22;42229;51.230;6.240;2024-03-08T00:25:49;5.20;99.90
27647;DHT22;42229;51.230;6.240;2024-03-08T00:28:15;5.20;99.90
27647;DHT22;42229;51.230;6.240;2024-03-08T00:30:42;5.10;99.90
27647;DHT22;42229;51.230;6.240;2024-03-08T00:33:09;5.10;99.90
27647;DHT22;42229;51.230;6.240;2024-03-08T00:35:35;5.10;99.90
27647;DHT22;42229;51.230;6.240;2024-03-08T00:38:01;5.00;99.90
27647;DHT22;42229;51.230;6.240;2024-03-08T00:40:28;5.00;99.90
27647;DHT22;42229;51.230;6.240;2024-03-08T00:42:54;5.00;99.90
27647;DHT22;42229;51.230;6.240;2024-03-08T00:45:21;4.90;99.90
27647;DHT22;42229;51.230;6.240;2024-03-08T00:47:49;4.90;99.90
27647;DHT22;42229;51.230;6.240;2024-03-08T00:50:15;4.80;99.90
27647;DHT22;42229;51.230;6.240;2024-03-08T00:52:41;4.80;99.90
27647;DHT22;42229;51.230;6.240;2024-03-08T00:55:08;4.70;99.90
27647;DHT22;42229;51.230;6.240;2024-03-08T00:57:36;4.70;99.90
27647;DHT22;42229;51.230;6.240;2024-03-08T01:00:03;4.60;99.90
27647;DHT22;42229;51.230;6.240;2024-03-08T01:02:31;4.60;99.90
27647;DHT22;42229;51.230;6.240;2024-03-08T01:04:59;4.60;99.90
27647;DHT22;42229;51.230;6.240;2024-03-08T01:07:25;4.50;99.90
27647;DHT22;42229;51.230;6.240;2024-03-08T01:09:51;4.50;99.90
27647;DHT22;42229;51.230;6.240;2024-03-08T01:12:17;4.50;99.90
27647;DHT22;42229;51.230;6.240;2024-03-08T01:14:44;4.50;99.90
27647;DHT22;42229;51.230;6.240;2024-03-08T01:17:10;4.40;99.90
27647;DHT22;42229;51.230;6.240;2024-03-08T01:19:37;4.40;99.90
27647;DHT22;42229;51.230;6.240;2024-03-08T01:22:04;4.40;99.90
27647;DHT22;42229;51.230;6.240;2024-03-08T01:24:30;4.40;99.90
27647;DHT22;42229;51.230;6.240;2024-03-08T01:26:57;4.40;99.90
27647;DHT22;42229;51.230;6.240;2024-03-08T01:29:23;4.40;99.90
27647;DHT22;42229;51.230;6.240;2024-03-08T01:31:49;4.40;99.90
27647;DHT22;42229;51.230;6.240;2024-03-08T01:34:15;4.40;99.90
27647;DHT22;42229;51.230;6.240;2024-03-08T01:36:41;4.50;99.90
27647;DHT22;42229;51.230;6.240;2024-03-08T01:39:08;4.50;99.90
27647;DHT22;42229;51.230;6.240;2024-03-08T01:41:35;4.50;99.90
27647;DHT22;42229;51.230;6.240;2024-03-08T01:44:01;4.50;99.90
27647;DHT22;42229;51.230;6.240;2024-03-08T01:46:28;4.50;99.90
27647;DHT22;42229;51.230;6.240;2024-03-08T01:48:55;4.50;99.90
27647;DHT22;42229;51.230;6.240;2024-03-08T01:51:21;4.40;99.90
27647;DHT22;42229;51.230;6.240;2024-03-08T01:53:47;4.50;99.90
27647;DHT22;42229;51.230;6.240;2024-03-08T01:56:14;4.40;99.90
27647;DHT22;42229;51.230;6.240;2024-03-08T01:58:43;4.40;99.90
27647;DHT22;42229;51.230;6.240;2024-03-08T02:01:11;4.40;99.90
27647;DHT22;42229;51.230;6.240;2024-03-08T02:03:40;4.40;99.90
27647;DHT22;42229;51.230;6.240;2024-03-08T02:06:06;4.40;99.90
27647;DHT22;42229;51.230;6.240;2024-03-08T02:08:36;4.30;99.90
27647;DHT22;42229;51.230;6.240;2024-03-08T02:11:02;4.30;99.90
27647;DHT22;42229;51.230;6.240;2024-03-08T02:13:29;4.20;99.90
27647;DHT22;42229;51.230;6.240;2024-03-08T02:15:56;4.30;99.90
27647;DHT22;42229;51.230;6.240;2024-03-08T02:18:27;4.20;99.90
27647;DHT22;42229;51.230;6.240;2024-03-08T02:20:55;4.20;99.90
27647;DHT22;42229;51.230;6.240;2024-03-08T02:23:22;4.20;99.90
27647;DHT22;42229;51.230;6.240;2024-03-08T02:25:48;4.20;99.90
27647;DHT22;42229;51.230;6.240;2024-03-08T02:28:15;4.20;99.90
27647;DHT22;42229;51.230;6.240;2024-03-08T02:30:41;4.20;99.90
27647;DHT22;42229;51.230;6.240;2024-03-08T02:33:07;4.10;99.90
27647;DHT22;42229;51.230;6.240;2024-03-08T02:35:37;4.10;99.90
27647;DHT22;42229;51.230;6.240;2024-03-08T02:38:03;4.10;99.90
27647;DHT22;42229;51.230;6.240;2024-03-08T02:40:29;4.10;99.90
27647;DHT22;42229;51.230;6.240;2024-03-08T02:42:56;4.10;99.90
27647;DHT22;42229;51.230;6.240;2024-03-08T02:45:22;4.00;99.90
27647;DHT22;42229;51.230;6.240;2024-03-08T02:47:48;4.00;99.90
27647;DHT22;42229;51.230;6.240;2024-03-08T02:50:17;4.00;99.90
27647;DHT22;42229;51.230;6.240;2024-03-08T02:52:43;4.00;99.90
27647;DHT22;42229;51.230;6.240;2024-03-08T02:55:12;3.90;99.90
27647;DHT22;42229;51.230;6.240;2024-03-08T02:57:42;3.90;99.90
27647;DHT22;42229;51.230;6.240;2024-03-08T03:00:09;3.90;99.90
27647;DHT22;42229;51.230;6.240;2024-03-08T03:02:36;3.80;99.90
27647;DHT22;42229;51.230;6.240;2024-03-08T03:05:03;3.80;99.90
27647;DHT22;42229;51.230;6.240;2024-03-08T03:07:35;3.80;99.90
27647;DHT22;42229;51.230;6.240;2024-03-08T03:10:01;3.70;99.90
27647;DHT22;42229;51.230;6.240;2024-03-08T03:12:28;3.70;99.90
27647;DHT22;42229;51.230;6.240;2024-03-08T03:14:54;3.70;99.90
27647;DHT22;42229;51.230;6.240;2024-03-08T03:17:22;3.60;99.90
27647;DHT22;42229;51.230;6.240;2024-03-08T03:19:52;3.60;99.90
27647;DHT22;42229;51.230;6.240;2024-03-08T03:22:19;3.60;99.90
27647;DHT22;42229;51.230;6.240;2024-03-08T03:24:45;3.60;99.90
27647;DHT22;42229;51.230;6.240;2024-03-08T03:27:15;3.50;99.90
27647;DHT22;42229;51.230;6.240;2024-03-08T03:29:41;3.50;99.90
27647;DHT22;42229;51.230;6.240;2024-03-08T03:32:11;3.50;99.90
27647;DHT22;42229;51.230;6.240;2024-03-08T03:34:38;3.40;99.90
27647;DHT22;42229;51.230;6.240;2024-03-08T03:37:04;3.40;99.90
27647;DHT22;42229;51.230;6.240;2024-03-08T03:39:32;3.40;99.90
27647;DHT22;42229;51.230;6.240;2024-03-08T03:42:00;3.40;99.90
27647;DHT22;42229;51.230;6.240;2024-03-08T03:44:28;3.30;99.90
27647;DHT22;42229;51.230;6.240;2024-03-08T03:46:54;3.30;99.90
27647;DHT22;42229;51.230;6.240;2024-03-08T03:49:20;3.30;99.90
27647;DHT22;42229;51.230;6.240;2024-03-08T03:51:47;3.20;99.90
27647;DHT22;42229;51.230;6.240;2024-03-08T03:54:13;3.20;99.90
27647;DHT22;42229;51.230;6.240;2024-03-08T03:56:39;3.20;99.90
27647;DHT22;42229;51.230;6.240;2024-03-08T03:59:06;3.10;99.90
27647;DHT22;42229;51.230;6.240;2024-03-08T04:01:33;3.10;99.90
27647;DHT22;42229;51.230;6.240;2024-03-08T04:04:00;3.10;99.90
27647;DHT22;42229;51.230;6.240;2024-03-08T04:06:26;3.10;99.90
27647;DHT22;42229;51.230;6.240;2024-03-08T04:08:52;3.10;99.90
27647;DHT22;42229;51.230;6.240;2024-03-08T04:11:18;3.00;99.90
27647;DHT22;42229;51.230;6.240;2024-03-08T04:13:44;3.00;99.90
27647;DHT22;42229;51.230;6.240;2024-03-08T04:16:11;3.00;99.90
27647;DHT22;42229;51.230;6.240;2024-03-08T04:18:37;3.00;99.90
27647;DHT22;42229;51.230;6.240;2024-03-08T04:21:04;3.00;99.90
27647;DHT22;42229;51.230;6.240;2024-03-08T04:23:35;3.00;99.90
27647;DHT22;42229;51.230;6.240;2024-03-08T04:26:04;3.00;99.90
27647;DHT22;42229;51.230;6.240;2024-03-08T04:28:32;3.00;99.90
27647;DHT22;42229;51.230;6.240;2024-03-08T04:30:58;2.90;99.90
27647;DHT22;42229;51.230;6.240;2024-03-08T04:33:26;2.90;99.90
27647;DHT22;42229;51.230;6.240;2024-03-08T04:35:52;2.90;99.90
27647;DHT22;42229;51.230;6.240;2024-03-08T04:38:19;2.80;99.90
27647;DHT22;42229;51.230;6.240;2024-03-08T04:40:45;2.80;99.90
27647;DHT22;42229;51.230;6.240;2024-03-08T04:43:11;2.80;99.90
27647;DHT22;42229;51.230;6.240;2024-03-08T04:45:38;2.70;99.90
27647;DHT22;42229;51.230;6.240;2024-03-08T04:48:05;2.80;99.90
27647;DHT22;42229;51.230;6.240;2024-03-08T04:50:31;2.70;99.90
27647;DHT22;42229;51.230;6.240;2024-03-08T04:52:57;2.70;99.90
27647;DHT22;42229;51.230;6.240;2024-03-08T04:55:23;2.80;99.90
27647;DHT22;42229;51.230;6.240;2024-03-08T04:57:50;2.70;99.90
27647;DHT22;42229;51.230;6.240;2024-03-08T05:00:17;2.70;99.90
27647;DHT22;42229;51.230;6.240;2024-03-08T05:02:43;2.70;99.90
27647;DHT22;42229;51.230;6.240;2024-03-08T05:05:10;2.70;99.90
27647;DHT22;42229;51.230;6.240;2024-03-08T05:07:38;2.70;99.90
27647;DHT22;42229;51.230;6.240;2024-03-08T05:10:06;2.70;99.90
27647;DHT22;42229;51.230;6.240;2024-03-08T05:12:33;2.70;99.90
27647;DHT22;42229;51.230;6.240;2024-03-08T05:14:59;2.70;99.90
27647;DHT22;42229;51.230;6.240;2024-03-08T05:17:26;2.70;99.90
27647;DHT22;42229;51.230;6.240;2024-03-08T05:19:52;2.70;99.90
27647;DHT22;42229;51.230;6.240;2024-03-08T05:22:19;2.70;99.90
27647;DHT22;42229;51.230;6.240;2024-03-08T05:24:45;2.70;99.90
27647;DHT22;42229;51.230;6.240;2024-03-08T05:27:11;2.80;99.90
27647;DHT22;42229;51.230;6.240;2024-03-08T05:29:38;2.80;99.90
27647;DHT22;42229;51.230;6.240;2024-03-08T05:32:05;2.80;99.90
27647;DHT22;42229;51.230;6.240;2024-03-08T05:34:32;2.80;99.90
27647;DHT22;42229;51.230;6.240;2024-03-08T05:36:59;2.80;99.90
27647;DHT22;42229;51.230;6.240;2024-03-08T05:39:26;2.80;99.90
27647;DHT22;42229;51.230;6.240;2024-03-08T05:41:52;2.80;99.90
27647;DHT22;42229;51.230;6.240;2024-03-08T05:44:18;2.80;99.90
27647;DHT22;42229;51.230;6.240;2024-03-08T05:46:44;2.80;99.90
27647;DHT22;42229;51.230;6.240;2024-03-08T05:49:12;2.70;99.90
27647;DHT22;42229;51.230;6.240;2024-03-08T05:51:39;2.70;99.90
27647;DHT22;42229;51.230;6.240;2024-03-08T05:54:07;2.70;99.90
27647;DHT22;42229;51.230;6.240;2024-03-08T05:56:36;2.70;99.90
27647;DHT22;42229;51.230;6.240;2024-03-08T05:59:02;2.70;99.90
27647;DHT22;42229;51.230;6.240;2024-03-08T06:01:29;2.60;99.90
27647;DHT22;42229;51.230;6.240;2024-03-08T06:03:55;2.60;99.90
27647;DHT22;42229;51.230;6.240;2024-03-08T06:06:23;2.60;99.90
27647;DHT22;42229;51.230;6.240;2024-03-08T06:08:49;2.60;99.90
27647;DHT22;42229;51.230;6.240;2024-03-08T06:11:17;2.60;99.90
27647;DHT22;42229;51.230;6.240;2024-03-08T06:13:44;2.60;99.90
27647;DHT22;42229;51.230;6.240;2024-03-08T06:16:10;2.60;99.90
27647;DHT22;42229;51.230;6.240;2024-03-08T06:18:37;2.60;99.90
27647;DHT22;42229;51.230;6.240;2024-03-08T06:21:05;2.60;99.90
27647;DHT22;42229;51.230;6.240;2024-03-08T06:23:32;2.60;99.90
27647;DHT22;42229;51.230;6.240;2024-03-08T06:25:58;2.60;99.90
27647;DHT22;42229;51.230;6.240;2024-03-08T06:28:25;2.60;99.90
27647;DHT22;42229;51.230;6.240;2024-03-08T06:30:51;2.60;99.90
27647;DHT22;42229;51.230;6.240;2024-03-08T06:33:17;2.60;99.90
27647;DHT22;42229;51.230;6.240;2024-03-08T06:35:44;2.60;99.90
27647;DHT22;42229;51.230;6.240;2024-03-08T06:38:10;2.60;99.90
27647;DHT22;42229;51.230;6.240;2024-03-08T06:40:37;2.50;99.90
27647;DHT22;42229;51.230;6.240;2024-03-08T06:43:03;2.60;99.90
27647;DHT22;42229;51.230;6.240;2024-03-08T06:45:32;2.60;99.90
27647;DHT22;42229;51.230;6.240;2024-03-08T06:47:58;2.60;99.90
27647;DHT22;42229;51.230;6.240;2024-03-08T06:50:25;2.60;99.90
27647;DHT22;42229;51.230;6.240;2024-03-08T06:52:51;2.60;99.90
27647;DHT22;42229;51.230;6.240;2024-03-08T06:55:19;2.60;99.90
27647;DHT22;42229;51.230;6.240;2024-03-08T06:57:46;2.60;99.90
27647;DHT22;42229;51.230;6.240;2024-03-08T07:00:12;2.70;99.90
27647;DHT22;42229;51.230;6.240;2024-03-08T07:02:44;2.70;99.90
27647;DHT22;42229;51.230;6.240;2024-03-08T07:05:19;2.70;99.90
27647;DHT22;42229;51.230;6.240;2024-03-08T07:07:45;2.80;99.90
27647;DHT22;42229;51.230;6.240;2024-03-08T07:10:14;2.80;99.90
27647;DHT22;42229;51.230;6.240;2024-03-08T07:12:41;2.90;99.90
27647;DHT22;42229;51.230;6.240;2024-03-08T07:15:08;2.90;99.90
27647;DHT22;42229;51.230;6.240;2024-03-08T07:17:39;3.00;99.90
27647;DHT22;42229;51.230;6.240;2024-03-08T07:20:06;3.00;99.90
27647;DHT22;42229;51.230;6.240;2024-03-08T07:22:38;3.00;99.90
27647;DHT22;42229;51.230;6.240;2024-03-08T07:25:07;3.10;99.90
27647;DHT22;42229;51.230;6.240;2024-03-08T07:27:52;3.10;99.90
27647;DHT22;42229;51.230;6.240;2024-03-08T07:30:23;3.20;99.90
27647;DHT22;42229;51.230;6.240;2024-03-08T07:33:09;3.20;99.90
27647;DHT22;42229;51.230;6.240;2024-03-08T07:35:38;3.30;99.90
27647;DHT22;42229;51.230;6.240;2024-03-08T07:38:06;3.40;99.90
27647;DHT22;42229;51.230;6.240;2024-03-08T07:40:37;3.40;99.90
27647;DHT22;42229;51.230;6.240;2024-03-08T07:43:10;3.50;99.90
27647;DHT22;42229;51.230;6.240;2024-03-08T07:45:37;3.60;99.90
27647;DHT22;42229;51.230;6.240;2024-03-08T07:48:04;3.70;99.90
27647;DHT22;42229;51.230;6.240;2024-03-08T07:50:39;3.70;99.90
27647;DHT22;42229;51.230;6.240;2024-03-08T07:53:06;3.90;99.90
27647;DHT22;42229;51.230;6.240;2024-03-08T07:55:33;4.00;99.90
27647;DHT22;42229;51.230;6.240;2024-03-08T07:58:01;4.10;99.90
27647;DHT22;42229;51.230;6.240;2024-03-08T08:00:29;4.20;99.90
27647;DHT22;42229;51.230;6.240;2024-03-08T08:02:57;4.40;99.90
27647;DHT22;42229;51.230;6.240;2024-03-08T08:05:23;4.60;99.90
27647;DHT22;42229;51.230;6.240;2024-03-08T08:07:49;4.70;99.90
27647;DHT22;42229;51.230;6.240;2024-03-08T08:10:18;4.90;99.90
27647;DHT22;42229;51.230;6.240;2024-03-08T08:12:47;5.00;99.90
27647;DHT22;42229;51.230;6.240;2024-03-08T08:15:14;5.20;99.90
27647;DHT22;42229;51.230;6.240;2024-03-08T08:17:44;5.40;99.90
27647;DHT22;42229;51.230;6.240;2024-03-08T08:20:10;5.60;99.90
27647;DHT22;42229;51.230;6.240;2024-03-08T08:22:38;5.70;99.90
27647;DHT22;42229;51.230;6.240;2024-03-08T08:25:07;5.90;99.90
27647;DHT22;42229;51.230;6.240;2024-03-08T08:27:34;6.00;99.90
27647;DHT22;42229;51.230;6.240;2024-03-08T08:30:02;6.20;99.90
27647;DHT22;42229;51.230;6.240;2024-03-08T08:32:34;6.30;99.90
27647;DHT22;42229;51.230;6.240;2024-03-08T08:35:05;6.50;99.90
27647;DHT22;42229;51.230;6.240;2024-03-08T08:37:32;6.60;99.90
27647;DHT22;42229;51.230;6.240;2024-03-08T08:39:58;6.80;99.90
27647;DHT22;42229;51.230;6.240;2024-03-08T08:42:24;6.90;99.90
27647;DHT22;42229;51.230;6.240;2024-03-08T08:44:50;7.00;99.90
27647;DHT22;42229;51.230;6.240;2024-03-08T08:47:18;7.10;99.90
27647;DHT22;42229;51.230;6.240;2024-03-08T08:49:45;7.20;99.90
27647;DHT22;42229;51.230;6.240;2024-03-08T08:52:12;7.30;99.90
27647;DHT22;42229;51.230;6.240;2024-03-08T08:54:38;7.50;99.90
27647;DHT22;42229;51.230;6.240;2024-03-08T08:57:05;7.60;99.90
27647;DHT22;42229;51.230;6.240;2024-03-08T08:59:34;7.70;99.90
27647;DHT22;42229;51.230;6.240;2024-03-08T09:02:06;7.80;99.90
27647;DHT22;42229;51.230;6.240;2024-03-08T09:04:32;7.90;99.90
27647;DHT22;42229;51.230;6.240;2024-03-08T09:06:59;8.00;99.90
27647;DHT22;42229;51.230;6.240;2024-03-08T09:09:25;8.10;99.90
27647;DHT22;42229;51.230;6.240;2024-03-08T09:11:51;8.30;99.90
27647;DHT22;42229;51.230;6.240;2024-03-08T09:14:20;8.30;99.90
27647;DHT22;42229;51.230;6.240;2024-03-08T09:16:46;8.40;99.90
27647;DHT22;42229;51.230;6.240;2024-03-08T09:19:13;8.50;99.90
27647;DHT22;42229;51.230;6.240;2024-03-08T09:21:39;8.60;99.90
27647;DHT22;42229;51.230;6.240;2024-03-08T09:24:08;8.70;99.90
27647;DHT22;42229;51.230;6.240;2024-03-08T09:26:34;8.70;99.90
27647;DHT22;42229;51.230;6.240;2024-03-08T09:29:00;8.80;99.90
27647;DHT22;42229;51.230;6.240;2024-03-08T09:31:27;8.90;99.90
27647;DHT22;42229;51.230;6.240;2024-03-08T09:33:53;9.00;99.90
27647;DHT22;42229;51.230;6.240;2024-03-08T09:36:19;9.00;99.90
27647;DHT22;42229;51.230;6.240;2024-03-08T09:38:46;9.10;99.90
27647;DHT22;42229;51.230;6.240;2024-03-08T09:41:13;9.20;99.90
27647;DHT22;42229;51.230;6.240;2024-03-08T09:43:39;9.20;99.90
27647;DHT22;42229;51.230;6.240;2024-03-08T09:46:05;9.30;99.90
27647;DHT22;42229;51.230;6.240;2024-03-08T09:48:36;9.40;99.90
27647;DHT22;42229;51.230;6.240;2024-03-08T09:51:04;9.40;99.90
27647;DHT22;42229;51.230;6.240;2024-03-08T09:53:30;9.50;99.90
27647;DHT22;42229;51.230;6.240;2024-03-08T09:55:56;9.60;99.90
27647;DHT22;42229;51.230;6.240;2024-03-08T09:58:23;9.60;99.90
27647;DHT22;42229;51.230;6.240;2024-03-08T10:00:52;9.70;99.90
27647;DHT22;42229;51.230;6.240;2024-03-08T10:03:19;9.80;99.90
27647;DHT22;42229;51.230;6.240;2024-03-08T10:05:45;9.90;99.90
27647;DHT22;42229;51.230;6.240;2024-03-08T10:08:12;9.90;99.90
27647;DHT22;42229;51.230;6.240;2024-03-08T10:10:39;10.00;99.90
27647;DHT22;42229;51.230;6.240;2024-03-08T10:13:09;10.00;99.90
27647;DHT22;42229;51.230;6.240;2024-03-08T10:15:36;10.20;99.90
27647;DHT22;42229;51.230;6.240;2024-03-08T10:18:02;10.20;99.90
27647;DHT22;42229;51.230;6.240;2024-03-08T10:20:30;10.30;99.90
27647;DHT22;42229;51.230;6.240;2024-03-08T10:22:59;10.30;99.90
27647;DHT22;42229;51.230;6.240;2024-03-08T10:25:26;10.40;99.90
27647;DHT22;42229;51.230;6.240;2024-03-08T10:27:52;10.50;99.90
27647;DHT22;42229;51.230;6.240;2024-03-08T10:30:18;10.50;99.90
27647;DHT22;42229;51.230;6.240;2024-03-08T10:32:46;10.60;99.90
27647;DHT22;42229;51.230;6.240;2024-03-08T10:35:12;10.60;99.90
27647;DHT22;42229;51.230;6.240;2024-03-08T10:37:46;10.70;99.90
27647;DHT22;42229;51.230;6.240;2024-03-08T10:40:17;10.80;99.90
27647;DHT22;42229;51.230;6.240;2024-03-08T10:42:47;10.80;99.90
27647;DHT22;42229;51.230;6.240;2024-03-08T10:48:11;11.00;99.90
27647;DHT22;42229;51.230;6.240;2024-03-08T10:50:53;11.20;99.90
27647;DHT22;42229;51.230;6.240;2024-03-08T10:53:20;11.30;99.90
27647;DHT22;42229;51.230;6.240;2024-03-08T10:55:49;11.40;99.90
27647;DHT22;42229;51.230;6.240;2024-03-08T10:58:22;11.50;99.90
27647;DHT22;42229;51.230;6.240;2024-03-08T11:00:53;11.50;99.90
27647;DHT22;42229;51.230;6.240;2024-03-08T11:06:17;11.70;99.50
27647;DHT22;42229;51.230;6.240;2024-03-08T11:08:55;11.70;99.90
27647;DHT22;42229;51.230;6.240;2024-03-08T11:11:32;11.80;99.90
27647;DHT22;42229;51.230;6.240;2024-03-08T11:14:02;11.90;99.90
27647;DHT22;42229;51.230;6.240;2024-03-08T11:18:59;12.20;99.10
27647;DHT22;42229;51.230;6.240;2024-03-08T11:21:30;12.30;99.90
27647;DHT22;42229;51.230;6.240;2024-03-08T11:24:03;12.40;99.90
27647;DHT22;42229;51.230;6.240;2024-03-08T11:26:33;12.50;99.90
27647;DHT22;42229;51.230;6.240;2024-03-08T11:32:15;12.60;99.90
27647;DHT22;42229;51.230;6.240;2024-03-08T11:34:45;12.70;97.90
27647;DHT22;42229;51.230;6.240;2024-03-08T11:37:13;12.90;99.90
27647;DHT22;42229;51.230;6.240;2024-03-08T11:39:51;13.00;99.90
27647;DHT22;42229;51.230;6.240;2024-03-08T11:42:18;13.20;99.90
27647;DHT22;42229;51.230;6.240;2024-03-08T11:44:45;13.30;99.20
27647;DHT22;42229;51.230;6.240;2024-03-08T11:47:12;13.50;99.90
27647;DHT22;42229;51.230;6.240;2024-03-08T11:49:38;13.70;99.90
27647;DHT22;42229;51.230;6.240;2024-03-08T11:52:10;13.80;99.30
27647;DHT22;42229;51.230;6.240;2024-03-08T11:54:39;14.00;98.80
27647;DHT22;42229;51.230;6.240;2024-03-08T11:57:06;14.20;99.40
27647;DHT22;42229;51.230;6.240;2024-03-08T11:59:32;14.40;94.70
27647;DHT22;42229;51.230;6.240;2024-03-08T12:02:02;14.60;96.60
27647;DHT22;42229;51.230;6.240;2024-03-08T12:04:30;14.80;95.40
27647;DHT22;42229;51.230;6.240;2024-03-08T12:06:59;15.10;95.90
27647;DHT22;42229;51.230;6.240;2024-03-08T12:09:35;15.40;98.00
27647;DHT22;42229;51.230;6.240;2024-03-08T12:12:02;15.70;96.70
27647;DHT22;42229;51.230;6.240;2024-03-08T12:14:33;16.00;91.90
27647;DHT22;42229;51.230;6.240;2024-03-08T12:16:59;16.20;95.70
27647;DHT22;42229;51.230;6.240;2024-03-08T12:19:28;16.50;97.60
27647;DHT22;42229;51.230;6.240;2024-03-08T12:21:55;16.70;91.20
27647;DHT22;42229;51.230;6.240;2024-03-08T12:24:21;16.90;90.60
27647;DHT22;42229;51.230;6.240;2024-03-08T12:26:47;17.20;96.50
27647;DHT22;42229;51.230;6.240;2024-03-08T12:31:42;17.50;93.30
27647;DHT22;42229;51.230;6.240;2024-03-08T12:34:08;17.60;88.90
27647;DHT22;42229;51.230;6.240;2024-03-08T12:36:35;17.70;88.90
27647;DHT22;42229;51.230;6.240;2024-03-08T12:39:05;17.80;93.70
27647;DHT22;42229;51.230;6.240;2024-03-08T12:41:38;17.90;85.30
27647;DHT22;42229;51.230;6.240;2024-03-08T12:44:05;18.00;82.40
27647;DHT22;42229;51.230;6.240;2024-03-08T12:46:33;18.20;90.50
27647;DHT22;42229;51.230;6.240;2024-03-08T12:49:00;18.30;91.70
27647;DHT22;42229;51.230;6.240;2024-03-08T12:51:27;18.50;90.80
27647;DHT22;42229;51.230;6.240;2024-03-08T12:53:55;18.60;78.00
27647;DHT22;42229;51.230;6.240;2024-03-08T12:56:31;18.80;91.70
27647;DHT22;42229;51.230;6.240;2024-03-08T12:58:59;19.00;92.10
27647;DHT22;42229;51.230;6.240;2024-03-08T13:01:26;19.20;78.90
27647;DHT22;42229;51.230;6.240;2024-03-08T13:03:53;19.40;87.20
27647;DHT22;42229;51.230;6.240;2024-03-08T13:06:19;19.50;90.00
27647;DHT22;42229;51.230;6.240;2024-03-08T13:08:50;19.60;82.50
27647;DHT22;42229;51.230;6.240;2024-03-08T13:11:21;19.70;88.50
27647;DHT22;42229;51.230;6.240;2024-03-08T13:13:49;19.80;90.00
27647;DHT22;42229;51.230;6.240;2024-03-08T13:16:15;19.90;84.20
27647;DHT22;42229;51.230;6.240;2024-03-08T13:18:43;20.10;74.70
27647;DHT22;42229;51.230;6.240;2024-03-08T13:21:12;20.20;84.00
27647;DHT22;42229;51.230;6.240;2024-03-08T13:23:40;20.30;77.30
27647;DHT22;42229;51.230;6.240;2024-03-08T13:26:12;20.30;77.10
27647;DHT22;42229;51.230;6.240;2024-03-08T13:28:45;20.30;76.80
27647;DHT22;42229;51.230;6.240;2024-03-08T13:31:11;20.30;76.20
27647;DHT22;42229;51.230;6.240;2024-03-08T13:33:38;20.30;79.10
27647;DHT22;42229;51.230;6.240;2024-03-08T13:36:10;20.30;83.40
27647;DHT22;42229;51.230;6.240;2024-03-08T13:38:47;20.40;81.50
27647;DHT22;42229;51.230;6.240;2024-03-08T13:41:14;20.40;80.20
27647;DHT22;42229;51.230;6.240;2024-03-08T13:43:43;20.40;74.50
27647;DHT22;42229;51.230;6.240;2024-03-08T13:46:09;20.40;78.70
27647;DHT22;42229;51.230;6.240;2024-03-08T13:48:38;20.40;80.90
27647;DHT22;42229;51.230;6.240;2024-03-08T13:51:04;20.40;80.50
27647;DHT22;42229;51.230;6.240;2024-03-08T13:53:32;20.40;77.80
27647;DHT22;42229;51.230;6.240;2024-03-08T13:56:02;20.40;74.30
27647;DHT22;42229;51.230;6.240;2024-03-08T13:58:28;20.30;77.10
27647;DHT22;42229;51.230;6.240;2024-03-08T14:00:55;20.30;74.20
27647;DHT22;42229;51.230;6.240;2024-03-08T14:03:21;20.30;64.00
27647;DHT22;42229;51.230;6.240;2024-03-08T14:05:47;20.30;72.80
27647;DHT22;42229;51.230;6.240;2024-03-08T14:08:14;20.30;71.10
27647;DHT22;42229;51.230;6.240;2024-03-08T14:10:41;20.20;65.40
27647;DHT22;42229;51.230;6.240;2024-03-08T14:13:08;20.20;76.70
27647;DHT22;42229;51.230;6.240;2024-03-08T14:15:34;20.20;72.90
27647;DHT22;42229;51.230;6.240;2024-03-08T14:18:01;20.10;71.90
27647;DHT22;42229;51.230;6.240;2024-03-08T14:20:27;20.10;74.90
27647;DHT22;42229;51.230;6.240;2024-03-08T14:22:54;20.10;72.90
27647;DHT22;42229;51.230;6.240;2024-03-08T14:25:23;20.10;73.00
27647;DHT22;42229;51.230;6.240;2024-03-08T14:27:50;20.00;74.40
27647;DHT22;42229;51.230;6.240;2024-03-08T14:30:20;20.00;64.00
27647;DHT22;42229;51.230;6.240;2024-03-08T14:33:01;19.90;65.70
27647;DHT22;42229;51.230;6.240;2024-03-08T14:35:28;19.90;72.10
27647;DHT22;42229;51.230;6.240;2024-03-08T14:37:55;19.80;67.80
27647;DHT22;42229;51.230;6.240;2024-03-08T14:40:26;19.70;65.20
27647;DHT22;42229;51.230;6.240;2024-03-08T14:42:52;19.60;62.70
27647;DHT22;42229;51.230;6.240;2024-03-08T14:45:19;19.60;69.80
27647;DHT22;42229;51.230;6.240;2024-03-08T14:47:46;19.70;69.40
27647;DHT22;42229;51.230;6.240;2024-03-08T14:50:16;19.70;69.80
27647;DHT22;42229;51.230;6.240;2024-03-08T14:52:43;19.70;72.10
27647;DHT22;42229;51.230;6.240;2024-03-08T14:55:09;19.80;72.20
27647;DHT22;42229;51.230;6.240;2024-03-08T14:57:42;19.90;69.80
27647;DHT22;42229;51.230;6.240;2024-03-08T15:00:11;19.90;69.20
27647;DHT22;42229;51.230;6.240;2024-03-08T15:02:55;20.00;71.90
27647;DHT22;42229;51.230;6.240;2024-03-08T15:05:25;20.00;60.50
27647;DHT22;42229;51.230;6.240;2024-03-08T15:07:52;20.00;68.40
27647;DHT22;42229;51.230;6.240;2024-03-08T15:10:19;20.00;67.10
27647;DHT22;42229;51.230;6.240;2024-03-08T15:12:48;20.00;72.00
27647;DHT22;42229;51.230;6.240;2024-03-08T15:15:14;19.90;66.70
27647;DHT22;42229;51.230;6.240;2024-03-08T15:17:44;19.90;64.70
27647;DHT22;42229;51.230;6.240;2024-03-08T15:20:13;19.80;62.90
27647;DHT22;42229;51.230;6.240;2024-03-08T15:22:43;19.80;66.00
27647;DHT22;42229;51.230;6.240;2024-03-08T15:25:10;19.70;65.40
27647;DHT22;42229;51.230;6.240;2024-03-08T15:27:46;19.70;70.50
27647;DHT22;42229;51.230;6.240;2024-03-08T15:30:12;19.60;68.50
27647;DHT22;42229;51.230;6.240;2024-03-08T15:32:39;19.50;66.00
27647;DHT22;42229;51.230;6.240;2024-03-08T15:35:10;19.40;64.70
27647;DHT22;42229;51.230;6.240;2024-03-08T15:37:40;19.30;63.20
27647;DHT22;42229;51.230;6.240;2024-03-08T15:40:09;19.10;63.10
27647;DHT22;42229;51.230;6.240;2024-03-08T15:43:04;19.00;67.20
27647;DHT22;42229;51.230;6.240;2024-03-08T15:45:31;18.90;70.30
27647;DHT22;42229;51.230;6.240;2024-03-08T15:47:58;18.80;71.40
27647;DHT22;42229;51.230;6.240;2024-03-08T15:50:24;18.70;68.60
27647;DHT22;42229;51.230;6.240;2024-03-08T15:52:50;18.60;70.40
27647;DHT22;42229;51.230;6.240;2024-03-08T15:55:20;18.60;71.30
27647;DHT22;42229;51.230;6.240;2024-03-08T15:57:49;18.50;71.10